createdAt,value
2022-11-02T00:01:13.613Z,75995.97
2022-11-02T00:03:41.643Z,75989.72
2022-11-02T00:06:09.624Z,75979.34
2022-11-02T00:08:37.552Z,75966.84
2022-11-02T00:11:05.571Z,75960.63
2022-11-02T00:13:35.101Z,75950.22
2022-11-02T00:16:03.656Z,75941.91
2022-11-02T00:18:32.180Z,75941.91
2022-11-02T00:21:00.015Z,75950.22
2022-11-02T00:23:29.013Z,75950.22
2022-11-02T00:26:00.674Z,75950.22
2022-11-02T00:28:31.174Z,75973.09
2022-11-02T00:31:00.373Z,75946.06
2022-11-02T00:33:28.409Z,75946.06
2022-11-02T00:35:56.666Z,75941.91
2022-11-02T00:38:24.674Z,75958.53
2022-11-02T00:40:52.578Z,75962.69
2022-11-02T00:43:20.610Z,75956.47
2022-11-02T00:45:48.461Z,75935.69
2022-11-02T00:48:17.705Z,75954.38
2022-11-02T00:50:45.635Z,75977.25
2022-11-02T00:53:13.684Z,75983.50
2022-11-02T00:55:41.467Z,75995.97
2022-11-02T00:58:09.672Z,75995.97
2022-11-02T01:00:37.566Z,76004.28
2022-11-02T01:03:05.456Z,76008.44
2022-11-02T01:05:34.599Z,76016.75
2022-11-02T01:08:02.941Z,76020.91
2022-11-02T01:10:31.069Z,76020.91
2022-11-02T01:12:58.964Z,76012.59
2022-11-02T01:15:26.767Z,76004.28
2022-11-02T01:17:54.761Z,76010.50
2022-11-02T01:20:22.591Z,75993.88
2022-11-02T01:22:51.942Z,76004.28
2022-11-02T01:25:19.852Z,75998.03
2022-11-02T01:27:47.750Z,76016.75
2022-11-02T01:30:15.798Z,76010.50
2022-11-02T01:32:43.943Z,76000.13
2022-11-02T01:35:11.655Z,76004.28
2022-11-02T01:37:39.742Z,76016.75
2022-11-02T01:40:10.115Z,76008.44
2022-11-02T01:42:38.134Z,76006.34
2022-11-02T01:45:07.774Z,76010.50
2022-11-02T01:47:39.129Z,75991.81
2022-11-02T01:50:11.459Z,75979.34
2022-11-02T01:52:40.420Z,75983.50
2022-11-02T01:55:14.792Z,76002.19
2022-11-02T01:57:46.852Z,75995.97
2022-11-02T02:00:17.385Z,76000.13
2022-11-02T02:02:51.432Z,76014.69
2022-11-02T02:05:21.628Z,76002.19
2022-11-02T02:07:51.480Z,75989.72
2022-11-02T02:10:20.903Z,76016.75
2022-11-02T02:12:49.342Z,76008.44
2022-11-02T02:15:17.307Z,76025.06
2022-11-02T02:17:50.140Z,76016.75
2022-11-02T02:20:33.436Z,76006.34
2022-11-02T02:23:38.494Z,75995.97
2022-11-02T02:26:24.520Z,76023.00
2022-11-02T02:28:58.104Z,76012.59
2022-11-02T02:31:34.139Z,76012.59
2022-11-02T02:34:08.472Z,76016.75
2022-11-02T02:39:20.330Z,76023.00
2022-11-02T02:41:55.839Z,76016.75
2022-11-02T02:44:30.695Z,76008.44
2022-11-02T02:47:03.183Z,76002.19
2022-11-02T02:49:38.923Z,76006.34
2022-11-02T02:52:08.349Z,75998.03
2022-11-02T02:54:39.811Z,76004.28
2022-11-02T02:57:12.073Z,76025.06
2022-11-02T02:59:43.828Z,76025.06
2022-11-02T03:02:17.077Z,76041.69
2022-11-02T03:04:45.252Z,76037.53
2022-11-02T03:07:15.903Z,76037.53
2022-11-02T03:09:48.130Z,76045.84
2022-11-02T03:12:22.808Z,76047.94
2022-11-02T03:15:11.231Z,76062.50
2022-11-02T03:17:47.616Z,76056.25
2022-11-02T03:20:22.966Z,76058.34
2022-11-02T03:23:06.892Z,76045.84
2022-11-02T03:25:47.159Z,76060.41
2022-11-02T03:28:20.168Z,76060.41
2022-11-02T03:30:55.912Z,76054.19
2022-11-02T03:33:30.366Z,76056.25
2022-11-02T03:36:06.599Z,76050.00
2022-11-02T03:38:43.236Z,76056.25
2022-11-02T03:41:12.711Z,76072.88
2022-11-02T03:43:42.851Z,76083.28
2022-11-02T03:46:14.484Z,76108.22
2022-11-02T03:48:45.843Z,76099.91
2022-11-02T03:51:16.789Z,76114.47
2022-11-02T03:53:50.389Z,76116.53
2022-11-02T03:56:22.928Z,76124.84
2022-11-02T03:58:50.880Z,76126.94
2022-11-02T04:01:21.737Z,76129.00
2022-11-02T04:03:49.702Z,76126.94
2022-11-02T04:06:18.184Z,76120.69
2022-11-02T04:08:48.150Z,76120.69
2022-11-02T04:11:34.848Z,76112.38
2022-11-02T04:14:20.557Z,76116.53
2022-11-02T04:16:49.747Z,76120.69
2022-11-02T04:19:28.875Z,76116.53
2022-11-02T04:22:14.916Z,76106.16
2022-11-02T04:25:00.898Z,76108.22
2022-11-02T04:27:28.788Z,76108.22
2022-11-02T04:29:56.827Z,76099.91
2022-11-02T04:32:40.042Z,76108.22
2022-11-02T04:35:09.320Z,76106.16
2022-11-02T04:37:58.061Z,76106.16
2022-11-02T04:40:26.328Z,76095.75
2022-11-02T04:42:54.618Z,76120.69
2022-11-02T04:45:22.349Z,76104.06
2022-11-02T04:47:51.863Z,76095.75
2022-11-02T04:50:19.561Z,76108.22
2022-11-02T04:52:47.470Z,76104.06
2022-11-02T04:55:15.613Z,76112.38
2022-11-02T04:57:46.427Z,76120.69
2022-11-02T05:00:15.671Z,76112.38
2022-11-02T05:02:43.870Z,76104.06
2022-11-02T05:05:13.008Z,76108.22
2022-11-02T05:07:40.943Z,76104.06
2022-11-02T05:10:09.314Z,76104.06
2022-11-02T05:12:37.903Z,76091.59
2022-11-02T05:15:06.538Z,76093.69
2022-11-02T05:17:34.551Z,76120.69
2022-11-02T05:20:02.734Z,76118.63
2022-11-02T05:22:32.894Z,76122.78
2022-11-02T05:25:00.795Z,76120.69
2022-11-02T05:27:29.039Z,76120.69
2022-11-02T05:29:56.806Z,76156.03
2022-11-02T05:32:24.851Z,76149.81
2022-11-02T05:34:52.606Z,76149.81
2022-11-02T05:37:20.469Z,76137.34
2022-11-02T05:39:50.677Z,76153.97
2022-11-02T05:42:18.791Z,76151.88
2022-11-02T05:44:46.519Z,76149.81
2022-11-02T05:47:14.550Z,76131.09
2022-11-02T05:49:42.328Z,76145.66
2022-11-02T05:52:10.273Z,76133.19
2022-11-02T05:54:38.174Z,76143.56
2022-11-02T05:57:07.589Z,76141.50
2022-11-02T05:59:35.308Z,76145.66
2022-11-02T06:02:03.503Z,76135.25
2022-11-02T06:04:31.396Z,76133.19
2022-11-02T06:06:59.288Z,76137.34
2022-11-02T06:09:27.582Z,76133.19
2022-11-02T06:11:56.848Z,76129.00
2022-11-02T06:14:25.900Z,76129.00
2022-11-02T06:16:53.890Z,76149.81
2022-11-02T06:19:21.697Z,76168.50
2022-11-02T06:21:49.590Z,76156.03
2022-11-02T06:24:17.460Z,76129.00
2022-11-02T06:26:46.804Z,76124.84
2022-11-02T06:29:14.967Z,76124.84
2022-11-02T06:31:44.588Z,76129.00
2022-11-02T06:34:12.316Z,76129.00
2022-11-02T06:36:40.327Z,76137.34
2022-11-02T06:39:08.144Z,76137.34
2022-11-02T06:41:36.052Z,76145.66
2022-11-02T06:44:03.877Z,76141.50
2022-11-02T06:46:32.327Z,76145.66
2022-11-02T06:49:01.533Z,76141.50
2022-11-02T06:51:29.465Z,76122.78
2022-11-02T06:53:57.355Z,76122.78
2022-11-02T06:56:25.227Z,76110.31
2022-11-02T06:58:53.109Z,76116.53
2022-11-02T07:01:21.429Z,76108.22
2022-11-02T07:03:49.211Z,76112.38
2022-11-02T07:06:18.416Z,76108.22
2022-11-02T07:08:46.354Z,76129.00
2022-11-02T07:11:15.950Z,76112.38
2022-11-02T07:13:43.887Z,76091.59
2022-11-02T07:16:12.194Z,76085.34
2022-11-02T07:18:39.931Z,76083.28
2022-11-02T07:21:10.521Z,76095.75
2022-11-02T07:23:39.992Z,76106.16
2022-11-02T07:26:08.016Z,76091.59
2022-11-02T07:28:36.822Z,76091.59
2022-11-02T07:31:05.360Z,76095.75
2022-11-02T07:33:33.339Z,76081.19
2022-11-02T07:36:03.767Z,76077.03
2022-11-02T07:38:31.988Z,76062.50
2022-11-02T07:41:01.314Z,76050.00
2022-11-02T07:43:29.112Z,76029.22
2022-11-02T07:45:57.222Z,76025.06
2022-11-02T07:48:24.964Z,76025.06
2022-11-02T07:50:52.886Z,75998.03
2022-11-02T07:53:20.929Z,75977.25
2022-11-02T07:55:48.804Z,75962.69
2022-11-02T07:58:17.967Z,75939.84
2022-11-02T08:00:46.362Z,75931.53
2022-11-02T08:03:14.769Z,75921.13
2022-11-02T08:05:43.888Z,75881.63
2022-11-02T08:08:14.153Z,75854.59
2022-11-02T08:10:42.695Z,75846.28
2022-11-02T08:13:12.315Z,75829.66
2022-11-02T08:15:41.658Z,75823.41
2022-11-02T08:18:14.669Z,75804.72
2022-11-02T08:20:42.936Z,75788.09
2022-11-02T08:23:11.778Z,75775.59
2022-11-02T08:25:40.483Z,75758.97
2022-11-02T08:28:13.066Z,75717.41
2022-11-02T08:30:42.116Z,75717.41
2022-11-02T08:33:13.492Z,75704.94
2022-11-02T08:35:41.530Z,75696.63
2022-11-02T08:38:10.655Z,75725.72
2022-11-02T08:40:38.868Z,75667.50
2022-11-02T08:43:08.996Z,75655.03
2022-11-02T08:46:12.700Z,75632.19
2022-11-02T08:48:28.609Z,75601.00
2022-11-02T08:50:58.496Z,75584.38
2022-11-02T08:53:26.697Z,75555.25
2022-11-02T08:55:54.589Z,75573.97
2022-11-02T08:58:22.719Z,75567.75
2022-11-02T09:00:53.830Z,75576.06
2022-11-02T09:03:27.005Z,75605.16
2022-11-02T09:06:00.741Z,75576.06
2022-11-02T09:08:30.246Z,75540.72
2022-11-02T09:11:00.653Z,75534.47
2022-11-02T09:13:28.931Z,75509.53
2022-11-02T09:15:59.317Z,75544.88
2022-11-02T09:18:27.566Z,75526.16
2022-11-02T09:20:55.305Z,75492.91
2022-11-02T09:23:24.992Z,75486.66
2022-11-02T09:25:53.583Z,75503.28
2022-11-02T09:28:21.573Z,75467.97
2022-11-02T09:30:49.501Z,75453.41
2022-11-02T09:33:17.639Z,75418.06
2022-11-02T09:35:48.094Z,75384.81
2022-11-02T09:38:18.283Z,75384.81
2022-11-02T09:40:54.563Z,75376.50
2022-11-02T09:43:32.828Z,75334.94
2022-11-02T09:46:05.483Z,75368.19
2022-11-02T09:48:37.503Z,75322.47
2022-11-02T09:51:09.805Z,75276.72
2022-11-02T09:53:48.611Z,75235.16
2022-11-02T09:56:20.465Z,75172.81
2022-11-02T09:58:54.362Z,75183.19
2022-11-02T10:01:43.160Z,75183.19
2022-11-02T10:04:32.020Z,75172.81
2022-11-02T10:07:07.863Z,75139.56
2022-11-02T10:09:44.205Z,75133.31
2022-11-02T10:12:17.875Z,75201.91
2022-11-02T10:14:57.123Z,75181.13
2022-11-02T10:17:28.299Z,75222.69
2022-11-02T10:19:58.731Z,75168.66
2022-11-02T10:22:29.827Z,75191.50
2022-11-02T10:25:01.327Z,75185.28
2022-11-02T10:27:34.179Z,75172.81
2022-11-02T10:30:05.614Z,75133.31
2022-11-02T10:32:36.257Z,75073.03
2022-11-02T10:38:14.795Z,75054.34
2022-11-02T10:40:59.591Z,75050.19
2022-11-02T10:43:45.227Z,75129.16
2022-11-02T10:46:30.804Z,75102.13
2022-11-02T10:49:05.235Z,75097.97
2022-11-02T10:51:33.615Z,75127.09
2022-11-02T10:54:01.474Z,75172.81
2022-11-02T10:56:32.732Z,75183.19
2022-11-02T10:59:09.801Z,75212.31
2022-11-02T11:01:38.139Z,75141.63
2022-11-02T11:04:09.033Z,75100.06
2022-11-02T11:06:38.761Z,75110.44
2022-11-02T11:09:16.206Z,75168.66
2022-11-02T11:11:54.701Z,75156.19
2022-11-02T11:20:07.614Z,75106.28
2022-11-02T11:22:37.813Z,75168.66
2022-11-02T11:25:27.152Z,75166.56
2022-11-02T11:27:57.773Z,75191.50
2022-11-02T11:33:23.050Z,75289.19
2022-11-02T11:35:51.896Z,75218.53
2022-11-02T11:38:23.096Z,75185.28
2022-11-02T11:40:54.681Z,75143.72
2022-11-02T11:43:25.337Z,75197.75
2022-11-02T11:46:05.822Z,75280.88
2022-11-02T11:48:39.006Z,75258.03
2022-11-02T11:51:26.445Z,75220.63
2022-11-02T11:54:17.874Z,75203.97
2022-11-02T11:56:46.323Z,75226.84
2022-11-02T11:59:22.013Z,75239.31
2022-11-02T12:01:54.317Z,75222.69
2022-11-02T12:04:30.930Z,75220.63
2022-11-02T12:07:13.854Z,75222.69
2022-11-02T12:09:48.113Z,75231.00
2022-11-02T12:12:26.167Z,75220.63
2022-11-02T12:15:06.461Z,75222.69
2022-11-02T12:17:49.304Z,75264.25
2022-11-02T12:20:28.410Z,75224.78
2022-11-02T12:23:08.840Z,75212.31
2022-11-02T12:25:46.345Z,75193.59
2022-11-02T12:28:27.330Z,75218.53
2022-11-02T12:31:03.472Z,75289.19
2022-11-02T12:33:45.482Z,75268.41
2022-11-02T12:36:26.371Z,75280.88
2022-11-02T12:39:03.454Z,75280.88
2022-11-02T12:42:11.392Z,75301.69
2022-11-02T12:45:02.845Z,75297.53
2022-11-02T12:47:44.125Z,75272.56
2022-11-02T12:50:22.529Z,75285.03
2022-11-02T12:53:00.498Z,75260.09
2022-11-02T12:55:38.185Z,75280.88
2022-11-02T12:58:14.385Z,75276.72
2022-11-02T13:00:45.787Z,75285.03
2022-11-02T13:03:27.755Z,75272.56
2022-11-02T13:06:06.328Z,75280.88
2022-11-02T13:08:40.224Z,75268.41
2022-11-02T13:11:15.495Z,75278.81
2022-11-02T13:13:47.672Z,75274.66
2022-11-02T13:16:17.795Z,75280.88
2022-11-02T13:18:50.501Z,75291.28
2022-11-02T13:21:24.767Z,75276.72
2022-11-02T13:23:57.221Z,75264.25
2022-11-02T13:26:30.068Z,75255.94
2022-11-02T13:29:03.953Z,75266.34
2022-11-02T13:31:36.835Z,75260.09
2022-11-02T13:34:11.165Z,75310.00
2022-11-02T13:36:40.930Z,75328.69
2022-11-02T13:39:15.196Z,75314.16
2022-11-02T13:42:04.136Z,75326.63
2022-11-02T13:44:55.394Z,75334.94
2022-11-02T13:47:43.449Z,75355.72
2022-11-02T13:50:16.260Z,75337.00
2022-11-02T13:52:50.110Z,75364.03
2022-11-02T13:55:21.379Z,75388.97
2022-11-02T13:57:54.131Z,75368.19
2022-11-02T14:00:30.635Z,75359.88
2022-11-02T14:03:04.883Z,75409.75
2022-11-02T14:05:36.607Z,75368.19
2022-11-02T14:08:08.912Z,75405.59
2022-11-02T14:10:39.674Z,75384.81
2022-11-02T14:13:13.988Z,75401.44
2022-11-02T14:15:43.280Z,75397.28
2022-11-02T14:18:14.460Z,75434.69
2022-11-02T14:20:44.007Z,75401.44
2022-11-02T14:23:39.576Z,75443.03
2022-11-02T14:26:34.429Z,75455.50
2022-11-02T14:29:26.607Z,75451.34
2022-11-02T14:32:02.352Z,75472.13
2022-11-02T14:34:55.061Z,75492.91
2022-11-02T14:37:39.532Z,75492.91
2022-11-02T14:40:21.294Z,75472.13
2022-11-02T14:43:34.209Z,75505.38
2022-11-02T14:46:11.057Z,75492.91
2022-11-02T14:48:48.282Z,75507.44
2022-11-02T14:51:21.054Z,75492.91
2022-11-02T14:53:51.092Z,75526.16
2022-11-02T14:56:20.383Z,75497.06
2022-11-02T14:58:53.265Z,75538.63
2022-11-02T15:01:22.091Z,75551.09
2022-11-02T15:03:51.348Z,75557.34
2022-11-02T15:06:23.748Z,75594.75
2022-11-02T15:08:55.615Z,75588.53
2022-11-02T15:11:48.145Z,75613.47
2022-11-02T15:14:54.942Z,75630.09
2022-11-02T15:17:55.390Z,75628.03
2022-11-02T15:20:29.742Z,75642.56
2022-11-02T15:23:29.873Z,75659.19
2022-11-02T15:26:00.067Z,75663.34
2022-11-02T15:28:33.517Z,75652.97
2022-11-02T15:31:07.085Z,75659.19
2022-11-02T15:33:37.805Z,75690.38
2022-11-02T15:36:09.390Z,75669.59
2022-11-02T15:38:40.219Z,75704.94
2022-11-02T15:41:20.784Z,75709.09
2022-11-02T15:44:11.792Z,75723.63
2022-11-02T15:46:53.434Z,75709.09
2022-11-02T15:49:36.466Z,75725.72
2022-11-02T15:52:16.329Z,75729.88
2022-11-02T15:55:07.380Z,75729.88
2022-11-02T15:57:44.776Z,75734.03
2022-11-02T16:00:19.958Z,75738.19
2022-11-02T16:02:50.765Z,75740.28
2022-11-02T16:05:23.439Z,75775.59
2022-11-02T16:08:10.525Z,75806.78
2022-11-02T16:10:39.109Z,75804.72
2022-11-02T16:13:17.202Z,75806.78
2022-11-02T16:15:48.760Z,75817.19
2022-11-02T16:18:24.853Z,75813.03
2022-11-02T16:20:54.891Z,75796.41
2022-11-02T16:23:26.447Z,75808.88
2022-11-02T16:25:57.096Z,75792.25
2022-11-02T16:28:27.293Z,75827.56
2022-11-02T16:31:10.915Z,75808.88
2022-11-02T16:33:46.366Z,75829.66
2022-11-02T16:36:16.568Z,75867.06
2022-11-02T16:38:48.912Z,75860.84
2022-11-02T16:41:18.428Z,75871.22
2022-11-02T16:43:49.636Z,75854.59
2022-11-02T16:46:19.006Z,75854.59
2022-11-02T16:49:03.603Z,75867.06
2022-11-02T16:51:31.548Z,75879.56
2022-11-02T16:54:20.807Z,75871.22
2022-11-02T16:56:51.191Z,75892.03
2022-11-02T16:59:21.282Z,75879.56
2022-11-02T17:01:50.728Z,75862.91
2022-11-02T17:04:22.809Z,75887.88
2022-11-02T17:06:53.986Z,75892.03
2022-11-02T17:09:28.139Z,75879.56
2022-11-02T17:11:58.769Z,75885.78
2022-11-02T17:14:28.843Z,75877.47
2022-11-02T17:17:04.863Z,75862.91
2022-11-02T17:19:47.969Z,75867.06
2022-11-02T17:22:23.760Z,75875.38
2022-11-02T17:25:05.485Z,75854.59
2022-11-02T17:27:39.118Z,75871.22
2022-11-02T17:30:44.384Z,75887.88
2022-11-02T17:33:25.784Z,75892.03
2022-11-02T17:35:55.852Z,75894.09
2022-11-02T17:38:26.993Z,75906.56
2022-11-02T17:40:56.120Z,75925.28
2022-11-02T17:43:23.792Z,75914.88
2022-11-02T17:45:56.283Z,75912.81
2022-11-02T17:48:28.388Z,75923.19
2022-11-02T17:50:57.198Z,75916.97
2022-11-02T17:53:25.356Z,75908.66
2022-11-02T17:55:54.371Z,75933.59
2022-11-02T17:58:22.109Z,75925.28
2022-11-02T18:00:53.688Z,75923.19
2022-11-02T18:03:25.368Z,75921.13
2022-11-02T18:05:59.831Z,75912.81
2022-11-02T18:08:28.183Z,75921.13
2022-11-02T18:10:56.709Z,75950.22
2022-11-02T18:13:25.267Z,75950.22
2022-11-02T18:15:53.215Z,75929.44
2022-11-02T18:18:21.318Z,75912.81
2022-11-02T18:20:49.320Z,75921.13
2022-11-02T18:23:19.845Z,75916.97
2022-11-02T18:25:48.112Z,75925.28
2022-11-02T18:28:15.869Z,75925.28
2022-11-02T18:30:45.001Z,75916.97
2022-11-02T18:33:14.024Z,75929.44
2022-11-02T18:35:44.279Z,75927.38
2022-11-02T18:38:12.685Z,75921.13
2022-11-02T18:40:42.294Z,75929.44
2022-11-02T18:43:10.258Z,75929.44
2022-11-02T18:45:38.472Z,75914.88
2022-11-02T18:48:07.147Z,75912.81
2022-11-02T18:50:35.336Z,75929.44
2022-11-02T18:53:03.040Z,75923.19
2022-11-02T18:55:31.352Z,75933.59
2022-11-02T18:58:00.395Z,75921.13
2022-11-02T19:00:28.389Z,75916.97
2022-11-02T19:02:56.307Z,75929.44
2022-11-02T19:05:42.135Z,75946.06
2022-11-02T19:08:28.561Z,75946.06
2022-11-02T19:10:56.593Z,75956.47
2022-11-02T19:13:26.576Z,75954.38
2022-11-02T19:15:54.603Z,75958.53
2022-11-02T19:18:22.379Z,75962.69
2022-11-02T19:20:50.560Z,75958.53
2022-11-02T19:23:18.247Z,75968.94
2022-11-02T19:25:51.302Z,75975.19
2022-11-02T19:28:19.321Z,75958.53
2022-11-02T19:30:48.621Z,75987.66
2022-11-02T19:33:16.319Z,75987.66
2022-11-02T19:35:44.638Z,76008.44
2022-11-02T19:38:12.323Z,76006.34
2022-11-02T19:40:40.264Z,76025.06
2022-11-02T19:43:08.522Z,75995.97
2022-11-02T19:45:36.676Z,76010.50
2022-11-02T19:48:06.131Z,76014.69
2022-11-02T19:50:34.544Z,76029.22
2022-11-02T19:53:02.241Z,76012.59
2022-11-02T19:55:30.224Z,76004.28
2022-11-02T19:57:58.109Z,76018.84
2022-11-02T20:00:26.268Z,76037.53
2022-11-02T20:02:54.016Z,76025.06
2022-11-02T20:05:23.552Z,76016.75
2022-11-02T20:07:52.340Z,76004.28
2022-11-02T20:10:20.322Z,76010.50
2022-11-02T20:12:48.119Z,76016.75
2022-11-02T20:15:16.124Z,76008.44
2022-11-02T20:18:05.496Z,76012.59
2022-11-02T20:20:33.304Z,76012.59
2022-11-02T20:23:01.338Z,76012.59
2022-11-02T20:25:29.384Z,76043.78
2022-11-02T20:27:57.505Z,76023.00
2022-11-02T20:30:25.466Z,76037.53
2022-11-02T20:32:53.139Z,76014.69
2022-11-02T20:35:25.437Z,76000.13
2022-11-02T20:37:54.813Z,76012.59
2022-11-02T20:40:23.854Z,76020.91
2022-11-02T20:42:51.658Z,76025.06
2022-11-02T20:45:19.686Z,76025.06
2022-11-02T20:47:47.463Z,76025.06
2022-11-02T20:50:16.855Z,76035.47
2022-11-02T20:52:46.635Z,76037.53
2022-11-02T20:55:16.377Z,76033.38
2022-11-02T20:57:44.060Z,76037.53
2022-11-02T21:00:14.113Z,76025.06
2022-11-02T21:02:46.115Z,76023.00
2022-11-02T21:05:14.679Z,76016.75
2022-11-02T21:07:42.457Z,76037.53
2022-11-02T21:10:11.404Z,76029.22
2022-11-02T21:12:58.284Z,76033.38
2022-11-02T21:15:26.375Z,76029.22
2022-11-02T21:17:54.479Z,76025.06
2022-11-02T21:20:34.654Z,76025.06
2022-11-02T21:23:03.714Z,76033.38
2022-11-02T21:25:33.144Z,76025.06
2022-11-02T21:28:02.176Z,76033.38
2022-11-02T21:30:31.106Z,76025.06
2022-11-02T21:32:58.874Z,76025.06
2022-11-02T21:35:26.888Z,76025.06
2022-11-02T21:38:01.259Z,76010.50
2022-11-02T21:40:31.875Z,76025.06
2022-11-02T21:43:00.655Z,76025.06
2022-11-02T21:45:34.845Z,76033.38
2022-11-02T21:48:05.732Z,76029.22
2022-11-02T21:50:33.849Z,76025.06
2022-11-02T21:53:01.516Z,76041.69
2022-11-02T21:55:29.975Z,76029.22
2022-11-02T21:57:57.668Z,76025.06
2022-11-02T22:00:45.960Z,76029.22
2022-11-02T22:03:14.387Z,76041.69
2022-11-02T22:05:59.437Z,76050.00
2022-11-02T22:08:39.406Z,76060.41
2022-11-02T22:11:08.886Z,76045.84
2022-11-02T22:13:37.372Z,76070.81
2022-11-02T22:16:14.745Z,76062.50
2022-11-02T22:18:45.663Z,76066.66
2022-11-02T22:21:15.160Z,76045.84
2022-11-02T22:23:44.924Z,76058.34
2022-11-02T22:26:15.723Z,76058.34
2022-11-02T22:28:45.034Z,76062.50
2022-11-02T22:31:15.568Z,76062.50
2022-11-02T22:33:45.250Z,76070.81
2022-11-02T22:36:16.208Z,76066.66
2022-11-02T22:38:51.483Z,76091.59
2022-11-02T22:41:21.816Z,76087.44
2022-11-02T22:43:51.299Z,76079.13
2022-11-02T22:46:19.597Z,76095.75
2022-11-02T22:48:48.889Z,76099.91
2022-11-02T22:51:19.008Z,76112.38
2022-11-02T22:53:46.672Z,76118.63
2022-11-02T22:56:15.956Z,76133.19
2022-11-02T22:58:46.552Z,76126.94
2022-11-02T23:01:18.839Z,76137.34
2022-11-02T23:03:49.226Z,76149.81
2022-11-02T23:06:18.423Z,76145.66
2022-11-02T23:08:46.840Z,76156.03
2022-11-02T23:11:22.695Z,76172.69
2022-11-02T23:13:53.319Z,76164.34
2022-11-02T23:16:24.121Z,76164.34
2022-11-02T23:19:13.355Z,76174.75
2022-11-02T23:21:43.522Z,76197.63
2022-11-02T23:24:29.813Z,76189.31
2022-11-02T23:26:58.508Z,76208.00
2022-11-02T23:29:43.731Z,76210.09
2022-11-02T23:32:28.049Z,76199.69
2022-11-02T23:35:17.702Z,76208.00
2022-11-02T23:37:47.275Z,76208.00
2022-11-02T23:40:16.532Z,76212.19
2022-11-02T23:42:44.787Z,76208.00
2022-11-02T23:45:12.947Z,76208.00
2022-11-02T23:48:01.001Z,76203.84
2022-11-02T23:50:50.405Z,76208.00
2022-11-02T23:53:38.504Z,76208.00
2022-11-02T23:56:25.366Z,76216.34
2022-11-02T23:59:07.049Z,76230.88
